sensor_id;sensor_type;location;lat;lon;timestamp;P1;durP1;ratioP1;P2;durP2;ratioP2
30896;SDS011;64229;52.246;21.054;2022-11-13T00:03:37;62.88;;;29.73;;
30896;SDS011;64229;52.246;21.054;2022-11-13T00:06:02;58.42;;;26.60;;
30896;SDS011;64229;52.246;21.054;2022-11-13T00:08:28;51.72;;;24.27;;
30896;SDS011;64229;52.246;21.054;2022-11-13T00:11:04;49.83;;;23.25;;
30896;SDS011;64229;52.246;21.054;2022-11-13T00:13:31;50.80;;;23.77;;
30896;SDS011;64229;52.246;21.054;2022-11-13T00:15:58;49.88;;;23.98;;
30896;SDS011;64229;52.246;21.054;2022-11-13T00:18:24;46.90;;;24.35;;
30896;SDS011;64229;52.246;21.054;2022-11-13T00:20:50;51.35;;;24.02;;
30896;SDS011;64229;52.246;21.054;2022-11-13T00:23:15;54.85;;;24.55;;
30896;SDS011;64229;52.246;21.054;2022-11-13T00:25:40;54.80;;;24.63;;
30896;SDS011;64229;52.246;21.054;2022-11-13T00:28:05;52.75;;;25.00;;
30896;SDS011;64229;52.246;21.054;2022-11-13T00:30:31;53.25;;;24.27;;
30896;SDS011;64229;52.246;21.054;2022-11-13T00:32:56;55.17;;;24.75;;
30896;SDS011;64229;52.246;21.054;2022-11-13T00:35:21;49.38;;;23.45;;
30896;SDS011;64229;52.246;21.054;2022-11-13T00:37:47;56.03;;;24.42;;
30896;SDS011;64229;52.246;21.054;2022-11-13T00:40:12;50.97;;;22.98;;
30896;SDS011;64229;52.246;21.054;2022-11-13T00:42:38;47.22;;;23.15;;
30896;SDS011;64229;52.246;21.054;2022-11-13T00:45:03;48.17;;;23.02;;
30896;SDS011;64229;52.246;21.054;2022-11-13T00:47:32;49.65;;;23.73;;
30896;SDS011;64229;52.246;21.054;2022-11-13T00:49:58;52.38;;;25.17;;
30896;SDS011;64229;52.246;21.054;2022-11-13T00:52:23;50.38;;;22.90;;
30896;SDS011;64229;52.246;21.054;2022-11-13T00:54:48;56.90;;;23.20;;
30896;SDS011;64229;52.246;21.054;2022-11-13T00:57:14;49.05;;;23.63;;
30896;SDS011;64229;52.246;21.054;2022-11-13T00:59:39;48.30;;;21.88;;
30896;SDS011;64229;52.246;21.054;2022-11-13T01:02:04;51.80;;;23.23;;
30896;SDS011;64229;52.246;21.054;2022-11-13T01:04:30;48.60;;;22.33;;
30896;SDS011;64229;52.246;21.054;2022-11-13T01:06:55;49.60;;;22.85;;
30896;SDS011;64229;52.246;21.054;2022-11-13T01:09:20;46.38;;;21.73;;
30896;SDS011;64229;52.246;21.054;2022-11-13T01:11:45;42.47;;;20.48;;
30896;SDS011;64229;52.246;21.054;2022-11-13T01:14:11;48.17;;;21.73;;
30896;SDS011;64229;52.246;21.054;2022-11-13T01:16:36;43.30;;;20.65;;
30896;SDS011;64229;52.246;21.054;2022-11-13T01:19:02;45.80;;;21.63;;
30896;SDS011;64229;52.246;21.054;2022-11-13T01:21:27;44.30;;;21.23;;
30896;SDS011;64229;52.246;21.054;2022-11-13T01:23:53;44.83;;;21.55;;
30896;SDS011;64229;52.246;21.054;2022-11-13T01:26:23;46.60;;;21.38;;
30896;SDS011;64229;52.246;21.054;2022-11-13T01:31:21;51.63;;;24.27;;
30896;SDS011;64229;52.246;21.054;2022-11-13T01:33:47;45.88;;;21.77;;
30896;SDS011;64229;52.246;21.054;2022-11-13T01:36:17;50.42;;;21.80;;
30896;SDS011;64229;52.246;21.054;2022-11-13T01:38:48;47.00;;;22.42;;
30896;SDS011;64229;52.246;21.054;2022-11-13T01:41:15;46.25;;;22.42;;
30896;SDS011;64229;52.246;21.054;2022-11-13T01:43:43;53.47;;;22.70;;
30896;SDS011;64229;52.246;21.054;2022-11-13T01:46:14;47.63;;;23.02;;
30896;SDS011;64229;52.246;21.054;2022-11-13T01:48:47;46.13;;;21.65;;
30896;SDS011;64229;52.246;21.054;2022-11-13T01:51:33;46.80;;;21.77;;
30896;SDS011;64229;52.246;21.054;2022-11-13T01:54:02;44.30;;;19.83;;
30896;SDS011;64229;52.246;21.054;2022-11-13T01:56:31;47.53;;;21.17;;
30896;SDS011;64229;52.246;21.054;2022-11-13T01:58:58;45.85;;;21.85;;
30896;SDS011;64229;52.246;21.054;2022-11-13T02:01:29;47.58;;;22.10;;
30896;SDS011;64229;52.246;21.054;2022-11-13T02:03:54;45.17;;;20.45;;
30896;SDS011;64229;52.246;21.054;2022-11-13T02:06:20;45.22;;;21.15;;
30896;SDS011;64229;52.246;21.054;2022-11-13T02:08:46;44.33;;;20.83;;
30896;SDS011;64229;52.246;21.054;2022-11-13T02:11:14;41.83;;;20.17;;
30896;SDS011;64229;52.246;21.054;2022-11-13T02:13:40;42.80;;;21.15;;
30896;SDS011;64229;52.246;21.054;2022-11-13T02:16:07;43.55;;;20.60;;
30896;SDS011;64229;52.246;21.054;2022-11-13T02:18:34;46.97;;;20.30;;
30896;SDS011;64229;52.246;21.054;2022-11-13T02:26:04;41.55;;;19.60;;
30896;SDS011;64229;52.246;21.054;2022-11-13T02:28:30;44.65;;;21.58;;
30896;SDS011;64229;52.246;21.054;2022-11-13T02:30:55;50.58;;;21.08;;
30896;SDS011;64229;52.246;21.054;2022-11-13T02:33:31;49.25;;;21.20;;
30896;SDS011;64229;52.246;21.054;2022-11-13T02:35:57;47.67;;;22.25;;
30896;SDS011;64229;52.246;21.054;2022-11-13T02:38:23;46.90;;;21.10;;
30896;SDS011;64229;52.246;21.054;2022-11-13T02:40:48;45.58;;;21.10;;
30896;SDS011;64229;52.246;21.054;2022-11-13T02:43:14;47.03;;;20.85;;
30896;SDS011;64229;52.246;21.054;2022-11-13T02:45:39;43.13;;;19.40;;
30896;SDS011;64229;52.246;21.054;2022-11-13T02:48:05;48.55;;;20.25;;
30896;SDS011;64229;52.246;21.054;2022-11-13T02:50:31;40.92;;;19.70;;
30896;SDS011;64229;52.246;21.054;2022-11-13T02:52:57;44.25;;;19.92;;
30896;SDS011;64229;52.246;21.054;2022-11-13T02:55:22;41.10;;;19.95;;
30896;SDS011;64229;52.246;21.054;2022-11-13T02:57:48;42.78;;;20.10;;
30896;SDS011;64229;52.246;21.054;2022-11-13T03:00:14;42.15;;;18.58;;
30896;SDS011;64229;52.246;21.054;2022-11-13T03:02:40;41.83;;;19.83;;
30896;SDS011;64229;52.246;21.054;2022-11-13T03:05:05;43.80;;;20.05;;
30896;SDS011;64229;52.246;21.054;2022-11-13T03:07:31;41.65;;;19.33;;
30896;SDS011;64229;52.246;21.054;2022-11-13T03:09:56;43.08;;;19.02;;
30896;SDS011;64229;52.246;21.054;2022-11-13T03:12:22;40.33;;;19.17;;
30896;SDS011;64229;52.246;21.054;2022-11-13T03:14:47;43.35;;;20.08;;
30896;SDS011;64229;52.246;21.054;2022-11-13T03:17:12;46.03;;;19.67;;
30896;SDS011;64229;52.246;21.054;2022-11-13T03:19:37;45.40;;;20.98;;
30896;SDS011;64229;52.246;21.054;2022-11-13T03:22:03;38.90;;;18.63;;
30896;SDS011;64229;52.246;21.054;2022-11-13T03:24:28;45.88;;;20.38;;
30896;SDS011;64229;52.246;21.054;2022-11-13T03:26:53;43.42;;;20.25;;
30896;SDS011;64229;52.246;21.054;2022-11-13T03:29:19;40.10;;;17.52;;
30896;SDS011;64229;52.246;21.054;2022-11-13T03:31:44;38.13;;;17.80;;
30896;SDS011;64229;52.246;21.054;2022-11-13T03:34:09;36.80;;;17.33;;
30896;SDS011;64229;52.246;21.054;2022-11-13T03:36:35;37.08;;;18.15;;
30896;SDS011;64229;52.246;21.054;2022-11-13T03:39:00;38.10;;;18.13;;
30896;SDS011;64229;52.246;21.054;2022-11-13T03:41:26;40.63;;;18.23;;
30896;SDS011;64229;52.246;21.054;2022-11-13T03:43:51;41.40;;;18.10;;
30896;SDS011;64229;52.246;21.054;2022-11-13T03:46:16;41.65;;;18.83;;
30896;SDS011;64229;52.246;21.054;2022-11-13T03:48:42;39.25;;;18.90;;
30896;SDS011;64229;52.246;21.054;2022-11-13T03:51:07;39.63;;;17.98;;
30896;SDS011;64229;52.246;21.054;2022-11-13T03:53:32;43.25;;;18.02;;
30896;SDS011;64229;52.246;21.054;2022-11-13T03:55:58;39.45;;;17.92;;
30896;SDS011;64229;52.246;21.054;2022-11-13T03:58:23;40.58;;;18.05;;
30896;SDS011;64229;52.246;21.054;2022-11-13T04:00:50;44.05;;;18.70;;
30896;SDS011;64229;52.246;21.054;2022-11-13T04:03:17;41.10;;;17.02;;
30896;SDS011;64229;52.246;21.054;2022-11-13T04:05:42;38.88;;;18.13;;
30896;SDS011;64229;52.246;21.054;2022-11-13T04:08:08;43.67;;;18.17;;
30896;SDS011;64229;52.246;21.054;2022-11-13T04:10:34;39.58;;;17.85;;
30896;SDS011;64229;52.246;21.054;2022-11-13T04:12:59;40.65;;;17.88;;
30896;SDS011;64229;52.246;21.054;2022-11-13T04:15:25;41.88;;;18.35;;
30896;SDS011;64229;52.246;21.054;2022-11-13T04:17:50;39.80;;;17.50;;
30896;SDS011;64229;52.246;21.054;2022-11-13T04:20:15;41.95;;;17.95;;
30896;SDS011;64229;52.246;21.054;2022-11-13T04:22:41;41.38;;;17.92;;
30896;SDS011;64229;52.246;21.054;2022-11-13T04:25:07;38.22;;;17.33;;
30896;SDS011;64229;52.246;21.054;2022-11-13T04:27:33;44.63;;;18.25;;
30896;SDS011;64229;52.246;21.054;2022-11-13T04:29:59;42.92;;;19.33;;
30896;SDS011;64229;52.246;21.054;2022-11-13T04:32:24;45.35;;;18.48;;
30896;SDS011;64229;52.246;21.054;2022-11-13T04:34:50;43.45;;;19.40;;
30896;SDS011;64229;52.246;21.054;2022-11-13T04:37:15;43.53;;;18.05;;
30896;SDS011;64229;52.246;21.054;2022-11-13T04:39:40;41.95;;;18.13;;
30896;SDS011;64229;52.246;21.054;2022-11-13T04:42:07;40.55;;;17.80;;
30896;SDS011;64229;52.246;21.054;2022-11-13T04:44:52;44.78;;;18.45;;
30896;SDS011;64229;52.246;21.054;2022-11-13T04:47:18;44.13;;;19.00;;
30896;SDS011;64229;52.246;21.054;2022-11-13T04:49:43;43.80;;;18.55;;
30896;SDS011;64229;52.246;21.054;2022-11-13T04:52:08;40.05;;;17.50;;
30896;SDS011;64229;52.246;21.054;2022-11-13T04:54:34;43.10;;;18.73;;
30896;SDS011;64229;52.246;21.054;2022-11-13T04:56:59;40.53;;;18.05;;
30896;SDS011;64229;52.246;21.054;2022-11-13T04:59:24;38.42;;;16.55;;
30896;SDS011;64229;52.246;21.054;2022-11-13T05:01:50;38.53;;;16.85;;
30896;SDS011;64229;52.246;21.054;2022-11-13T05:04:15;39.67;;;16.42;;
30896;SDS011;64229;52.246;21.054;2022-11-13T05:06:40;37.63;;;16.52;;
30896;SDS011;64229;52.246;21.054;2022-11-13T05:09:06;46.65;;;18.40;;
30896;SDS011;64229;52.246;21.054;2022-11-13T05:11:32;43.88;;;17.27;;
30896;SDS011;64229;52.246;21.054;2022-11-13T05:13:57;40.63;;;16.73;;
30896;SDS011;64229;52.246;21.054;2022-11-13T05:16:22;42.42;;;18.30;;
30896;SDS011;64229;52.246;21.054;2022-11-13T05:18:48;40.63;;;18.60;;
30896;SDS011;64229;52.246;21.054;2022-11-13T05:21:14;43.67;;;18.27;;
30896;SDS011;64229;52.246;21.054;2022-11-13T05:23:39;38.70;;;16.73;;
30896;SDS011;64229;52.246;21.054;2022-11-13T05:26:06;40.88;;;17.92;;
30896;SDS011;64229;52.246;21.054;2022-11-13T05:28:33;41.88;;;16.42;;
30896;SDS011;64229;52.246;21.054;2022-11-13T05:31:03;42.03;;;17.17;;
30896;SDS011;64229;52.246;21.054;2022-11-13T05:33:33;38.63;;;16.95;;
30896;SDS011;64229;52.246;21.054;2022-11-13T05:36:03;41.35;;;17.17;;
30896;SDS011;64229;52.246;21.054;2022-11-13T05:38:32;37.90;;;17.23;;
30896;SDS011;64229;52.246;21.054;2022-11-13T05:41:02;41.92;;;17.52;;
30896;SDS011;64229;52.246;21.054;2022-11-13T05:43:30;46.05;;;18.33;;
30896;SDS011;64229;52.246;21.054;2022-11-13T05:46:03;41.13;;;15.52;;
30896;SDS011;64229;52.246;21.054;2022-11-13T05:48:40;44.40;;;16.65;;
30896;SDS011;64229;52.246;21.054;2022-11-13T05:51:06;38.92;;;16.92;;
30896;SDS011;64229;52.246;21.054;2022-11-13T05:53:34;43.72;;;17.40;;
30896;SDS011;64229;52.246;21.054;2022-11-13T05:56:00;35.83;;;16.23;;
30896;SDS011;64229;52.246;21.054;2022-11-13T05:58:28;37.72;;;17.60;;
30896;SDS011;64229;52.246;21.054;2022-11-13T06:01:03;39.60;;;15.75;;
30896;SDS011;64229;52.246;21.054;2022-11-13T06:03:31;36.75;;;16.42;;
30896;SDS011;64229;52.246;21.054;2022-11-13T06:05:57;40.00;;;17.25;;
30896;SDS011;64229;52.246;21.054;2022-11-13T06:08:23;34.97;;;16.05;;
30896;SDS011;64229;52.246;21.054;2022-11-13T06:10:48;42.90;;;16.60;;
30896;SDS011;64229;52.246;21.054;2022-11-13T06:13:14;38.40;;;16.33;;
30896;SDS011;64229;52.246;21.054;2022-11-13T06:15:39;41.75;;;17.48;;
30896;SDS011;64229;52.246;21.054;2022-11-13T06:18:04;39.30;;;15.45;;
30896;SDS011;64229;52.246;21.054;2022-11-13T06:20:30;45.17;;;17.58;;
30896;SDS011;64229;52.246;21.054;2022-11-13T06:22:58;37.47;;;16.70;;
30896;SDS011;64229;52.246;21.054;2022-11-13T06:25:23;41.47;;;17.33;;
30896;SDS011;64229;52.246;21.054;2022-11-13T06:27:49;44.28;;;17.20;;
30896;SDS011;64229;52.246;21.054;2022-11-13T06:30:14;38.15;;;16.60;;
30896;SDS011;64229;52.246;21.054;2022-11-13T06:41:53;36.00;;;16.20;;
30896;SDS011;64229;52.246;21.054;2022-11-13T06:44:19;38.78;;;17.45;;
30896;SDS011;64229;52.246;21.054;2022-11-13T06:46:44;39.20;;;17.48;;
30896;SDS011;64229;52.246;21.054;2022-11-13T06:49:09;40.33;;;17.75;;
30896;SDS011;64229;52.246;21.054;2022-11-13T06:51:34;39.80;;;16.83;;
30896;SDS011;64229;52.246;21.054;2022-11-13T06:54:00;40.65;;;18.20;;
30896;SDS011;64229;52.246;21.054;2022-11-13T06:56:25;46.42;;;19.55;;
30896;SDS011;64229;52.246;21.054;2022-11-13T06:58:51;44.45;;;18.33;;
30896;SDS011;64229;52.246;21.054;2022-11-13T07:01:19;39.90;;;17.70;;
30896;SDS011;64229;52.246;21.054;2022-11-13T07:03:46;43.28;;;18.25;;
30896;SDS011;64229;52.246;21.054;2022-11-13T07:06:12;40.97;;;17.77;;
30896;SDS011;64229;52.246;21.054;2022-11-13T07:08:40;40.65;;;16.83;;
30896;SDS011;64229;52.246;21.054;2022-11-13T07:11:07;35.53;;;14.98;;
30896;SDS011;64229;52.246;21.054;2022-11-13T07:13:35;36.35;;;14.55;;
30896;SDS011;64229;52.246;21.054;2022-11-13T07:16:02;28.75;;;13.05;;
30896;SDS011;64229;52.246;21.054;2022-11-13T07:18:30;28.23;;;11.68;;
30896;SDS011;64229;52.246;21.054;2022-11-13T07:20:56;27.33;;;12.23;;
30896;SDS011;64229;52.246;21.054;2022-11-13T07:23:22;28.17;;;12.02;;
30896;SDS011;64229;52.246;21.054;2022-11-13T07:25:47;32.58;;;12.82;;
30896;SDS011;64229;52.246;21.054;2022-11-13T07:28:13;30.13;;;13.77;;
30896;SDS011;64229;52.246;21.054;2022-11-13T07:30:38;35.28;;;14.15;;
30896;SDS011;64229;52.246;21.054;2022-11-13T07:33:03;29.30;;;13.20;;
30896;SDS011;64229;52.246;21.054;2022-11-13T07:35:29;35.30;;;15.27;;
30896;SDS011;64229;52.246;21.054;2022-11-13T07:37:56;32.20;;;13.05;;
30896;SDS011;64229;52.246;21.054;2022-11-13T07:40:22;34.38;;;13.95;;
30896;SDS011;64229;52.246;21.054;2022-11-13T07:42:47;32.65;;;13.73;;
30896;SDS011;64229;52.246;21.054;2022-11-13T07:45:20;29.23;;;13.18;;
30896;SDS011;64229;52.246;21.054;2022-11-13T07:47:45;35.25;;;15.02;;
30896;SDS011;64229;52.246;21.054;2022-11-13T07:50:10;34.30;;;15.52;;
30896;SDS011;64229;52.246;21.054;2022-11-13T07:52:35;33.13;;;13.93;;
30896;SDS011;64229;52.246;21.054;2022-11-13T07:55:01;30.90;;;13.68;;
30896;SDS011;64229;52.246;21.054;2022-11-13T07:57:26;29.00;;;13.73;;
30896;SDS011;64229;52.246;21.054;2022-11-13T07:59:52;35.08;;;15.25;;
30896;SDS011;64229;52.246;21.054;2022-11-13T08:02:17;31.20;;;13.23;;
30896;SDS011;64229;52.246;21.054;2022-11-13T08:04:42;31.73;;;14.00;;
30896;SDS011;64229;52.246;21.054;2022-11-13T08:07:09;30.77;;;13.88;;
30896;SDS011;64229;52.246;21.054;2022-11-13T08:09:36;30.63;;;13.45;;
30896;SDS011;64229;52.246;21.054;2022-11-13T08:12:01;31.05;;;13.48;;
30896;SDS011;64229;52.246;21.054;2022-11-13T08:14:27;33.67;;;14.90;;
30896;SDS011;64229;52.246;21.054;2022-11-13T08:16:52;32.75;;;14.13;;
30896;SDS011;64229;52.246;21.054;2022-11-13T08:19:17;33.10;;;14.65;;
30896;SDS011;64229;52.246;21.054;2022-11-13T08:21:43;27.40;;;12.57;;
30896;SDS011;64229;52.246;21.054;2022-11-13T08:24:08;30.40;;;13.40;;
30896;SDS011;64229;52.246;21.054;2022-11-13T08:26:36;29.17;;;13.43;;
30896;SDS011;64229;52.246;21.054;2022-11-13T08:29:02;31.55;;;12.98;;
30896;SDS011;64229;52.246;21.054;2022-11-13T08:31:27;30.95;;;13.05;;
30896;SDS011;64229;52.246;21.054;2022-11-13T08:33:53;29.63;;;12.68;;
30896;SDS011;64229;52.246;21.054;2022-11-13T08:36:18;31.27;;;12.75;;
30896;SDS011;64229;52.246;21.054;2022-11-13T08:38:43;25.65;;;12.10;;
30896;SDS011;64229;52.246;21.054;2022-11-13T08:41:08;30.27;;;12.85;;
30896;SDS011;64229;52.246;21.054;2022-11-13T08:43:34;31.70;;;13.45;;
30896;SDS011;64229;52.246;21.054;2022-11-13T08:45:59;32.90;;;13.65;;
30896;SDS011;64229;52.246;21.054;2022-11-13T08:48:25;32.83;;;13.57;;
30896;SDS011;64229;52.246;21.054;2022-11-13T08:50:53;31.45;;;13.25;;
30896;SDS011;64229;52.246;21.054;2022-11-13T08:53:20;34.20;;;14.38;;
30896;SDS011;64229;52.246;21.054;2022-11-13T08:55:46;32.83;;;12.95;;
30896;SDS011;64229;52.246;21.054;2022-11-13T08:58:12;31.45;;;13.43;;
30896;SDS011;64229;52.246;21.054;2022-11-13T09:00:37;30.58;;;12.93;;
30896;SDS011;64229;52.246;21.054;2022-11-13T09:03:03;31.63;;;13.52;;
30896;SDS011;64229;52.246;21.054;2022-11-13T09:05:28;31.25;;;12.88;;
30896;SDS011;64229;52.246;21.054;2022-11-13T09:07:54;29.25;;;12.60;;
30896;SDS011;64229;52.246;21.054;2022-11-13T09:10:21;29.77;;;11.50;;
30896;SDS011;64229;52.246;21.054;2022-11-13T09:12:47;31.13;;;12.85;;
30896;SDS011;64229;52.246;21.054;2022-11-13T09:15:12;28.73;;;12.65;;
30896;SDS011;64229;52.246;21.054;2022-11-13T09:17:37;32.13;;;11.57;;
30896;SDS011;64229;52.246;21.054;2022-11-13T09:20:03;31.90;;;13.07;;
30896;SDS011;64229;52.246;21.054;2022-11-13T09:22:31;27.08;;;11.18;;
30896;SDS011;64229;52.246;21.054;2022-11-13T09:24:56;28.77;;;11.30;;
30896;SDS011;64229;52.246;21.054;2022-11-13T09:27:22;24.83;;;11.02;;
30896;SDS011;64229;52.246;21.054;2022-11-13T09:29:47;24.60;;;11.00;;
30896;SDS011;64229;52.246;21.054;2022-11-13T09:32:13;24.67;;;11.13;;
30896;SDS011;64229;52.246;21.054;2022-11-13T09:34:38;26.67;;;11.05;;
30896;SDS011;64229;52.246;21.054;2022-11-13T09:37:04;23.05;;;11.00;;
30896;SDS011;64229;52.246;21.054;2022-11-13T09:39:29;27.20;;;11.00;;
30896;SDS011;64229;52.246;21.054;2022-11-13T09:41:56;21.85;;;10.13;;
30896;SDS011;64229;52.246;21.054;2022-11-13T09:44:30;23.20;;;9.65;;
30896;SDS011;64229;52.246;21.054;2022-11-13T09:47:14;23.60;;;10.05;;
30896;SDS011;64229;52.246;21.054;2022-11-13T09:49:45;25.25;;;10.15;;
30896;SDS011;64229;52.246;21.054;2022-11-13T09:52:14;20.05;;;8.55;;
30896;SDS011;64229;52.246;21.054;2022-11-13T09:54:44;22.08;;;9.15;;
30896;SDS011;64229;52.246;21.054;2022-11-13T10:00:40;17.73;;;7.65;;
30896;SDS011;64229;52.246;21.054;2022-11-13T10:06:12;17.52;;;7.60;;
30896;SDS011;64229;52.246;21.054;2022-11-13T10:11:42;17.10;;;7.63;;
30896;SDS011;64229;52.246;21.054;2022-11-13T10:22:29;17.35;;;7.53;;
30896;SDS011;64229;52.246;21.054;2022-11-13T10:25:25;14.93;;;7.07;;
30896;SDS011;64229;52.246;21.054;2022-11-13T10:27:57;19.52;;;8.00;;
30896;SDS011;64229;52.246;21.054;2022-11-13T10:30:25;19.67;;;8.25;;
30896;SDS011;64229;52.246;21.054;2022-11-13T10:32:50;20.23;;;8.85;;
30896;SDS011;64229;52.246;21.054;2022-11-13T10:40:49;16.27;;;7.55;;
30896;SDS011;64229;52.246;21.054;2022-11-13T10:43:19;17.65;;;8.75;;
30896;SDS011;64229;52.246;21.054;2022-11-13T10:45:57;17.38;;;7.80;;
30896;SDS011;64229;52.246;21.054;2022-11-13T10:48:30;16.48;;;8.40;;
30896;SDS011;64229;52.246;21.054;2022-11-13T10:51:04;21.17;;;8.90;;
30896;SDS011;64229;52.246;21.054;2022-11-13T10:53:43;16.38;;;7.85;;
30896;SDS011;64229;52.246;21.054;2022-11-13T11:01:42;22.75;;;9.70;;
30896;SDS011;64229;52.246;21.054;2022-11-13T11:04:12;22.83;;;10.45;;
30896;SDS011;64229;52.246;21.054;2022-11-13T11:06:43;24.15;;;10.25;;
30896;SDS011;64229;52.246;21.054;2022-11-13T11:11:37;22.90;;;10.75;;
30896;SDS011;64229;52.246;21.054;2022-11-13T11:14:25;24.87;;;10.83;;
30896;SDS011;64229;52.246;21.054;2022-11-13T11:16:55;21.67;;;9.93;;
30896;SDS011;64229;52.246;21.054;2022-11-13T11:19:23;23.08;;;9.90;;
30896;SDS011;64229;52.246;21.054;2022-11-13T11:21:53;22.98;;;9.90;;
30896;SDS011;64229;52.246;21.054;2022-11-13T11:24:32;20.40;;;9.80;;
30896;SDS011;64229;52.246;21.054;2022-11-13T11:27:04;18.25;;;9.45;;
30896;SDS011;64229;52.246;21.054;2022-11-13T11:29:38;20.65;;;9.80;;
30896;SDS011;64229;52.246;21.054;2022-11-13T11:35:25;23.83;;;10.10;;
30896;SDS011;64229;52.246;21.054;2022-11-13T11:37:35;21.85;;;10.32;;
30896;SDS011;64229;52.246;21.054;2022-11-13T11:47:48;20.60;;;10.18;;
30896;SDS011;64229;52.246;21.054;2022-11-13T11:50:15;16.85;;;9.80;;
30896;SDS011;64229;52.246;21.054;2022-11-13T11:58:25;17.45;;;8.98;;
30896;SDS011;64229;52.246;21.054;2022-11-13T12:01:04;18.27;;;8.93;;
30896;SDS011;64229;52.246;21.054;2022-11-13T12:09:40;17.52;;;8.70;;
30896;SDS011;64229;52.246;21.054;2022-11-13T12:20:05;16.48;;;8.25;;
30896;SDS011;64229;52.246;21.054;2022-11-13T12:25:18;20.42;;;9.25;;
30896;SDS011;64229;52.246;21.054;2022-11-13T12:30:26;20.10;;;9.57;;
30896;SDS011;64229;52.246;21.054;2022-11-13T12:35:53;18.38;;;8.98;;
30896;SDS011;64229;52.246;21.054;2022-11-13T12:44:22;19.52;;;9.15;;
30896;SDS011;64229;52.246;21.054;2022-11-13T12:46:49;19.98;;;9.07;;
30896;SDS011;64229;52.246;21.054;2022-11-13T12:54:24;23.13;;;10.60;;
30896;SDS011;64229;52.246;21.054;2022-11-13T12:56:51;19.27;;;9.23;;
30896;SDS011;64229;52.246;21.054;2022-11-13T13:01:42;19.43;;;9.43;;
30896;SDS011;64229;52.246;21.054;2022-11-13T13:12:48;21.08;;;10.63;;
30896;SDS011;64229;52.246;21.054;2022-11-13T13:20:30;26.65;;;12.48;;
30896;SDS011;64229;52.246;21.054;2022-11-13T13:22:59;23.15;;;11.70;;
30896;SDS011;64229;52.246;21.054;2022-11-13T13:25:26;24.90;;;12.30;;
30896;SDS011;64229;52.246;21.054;2022-11-13T13:27:59;25.85;;;12.57;;
30896;SDS011;64229;52.246;21.054;2022-11-13T13:47:05;28.80;;;13.38;;
30896;SDS011;64229;52.246;21.054;2022-11-13T13:49:38;28.80;;;13.10;;
30896;SDS011;64229;52.246;21.054;2022-11-13T13:52:04;27.52;;;13.88;;
30896;SDS011;64229;52.246;21.054;2022-11-13T13:54:30;30.17;;;13.35;;
30896;SDS011;64229;52.246;21.054;2022-11-13T13:56:57;30.80;;;13.90;;
30896;SDS011;64229;52.246;21.054;2022-11-13T13:59:28;32.40;;;13.90;;
30896;SDS011;64229;52.246;21.054;2022-11-13T14:01:58;26.25;;;12.20;;
30896;SDS011;64229;52.246;21.054;2022-11-13T14:04:28;25.85;;;13.00;;
30896;SDS011;64229;52.246;21.054;2022-11-13T14:06:58;28.00;;;13.48;;
30896;SDS011;64229;52.246;21.054;2022-11-13T14:09:26;25.75;;;13.10;;
30896;SDS011;64229;52.246;21.054;2022-11-13T14:11:57;27.00;;;13.63;;
30896;SDS011;64229;52.246;21.054;2022-11-13T14:14:25;28.83;;;13.13;;
30896;SDS011;64229;52.246;21.054;2022-11-13T14:16:52;28.08;;;13.57;;
30896;SDS011;64229;52.246;21.054;2022-11-13T14:19:19;29.95;;;12.95;;
30896;SDS011;64229;52.246;21.054;2022-11-13T14:21:45;29.02;;;12.93;;
30896;SDS011;64229;52.246;21.054;2022-11-13T14:24:20;31.10;;;13.35;;
30896;SDS011;64229;52.246;21.054;2022-11-13T14:26:48;26.23;;;13.25;;
30896;SDS011;64229;52.246;21.054;2022-11-13T14:29:21;24.98;;;12.48;;
30896;SDS011;64229;52.246;21.054;2022-11-13T14:31:53;26.67;;;12.73;;
30896;SDS011;64229;52.246;21.054;2022-11-13T14:34:19;26.08;;;12.88;;
30896;SDS011;64229;52.246;21.054;2022-11-13T14:36:47;26.90;;;12.98;;
30896;SDS011;64229;52.246;21.054;2022-11-13T14:39:21;26.33;;;12.55;;
30896;SDS011;64229;52.246;21.054;2022-11-13T14:41:57;24.27;;;11.80;;
30896;SDS011;64229;52.246;21.054;2022-11-13T14:44:24;30.05;;;12.77;;
30896;SDS011;64229;52.246;21.054;2022-11-13T14:47:01;24.80;;;12.90;;
30896;SDS011;64229;52.246;21.054;2022-11-13T14:49:44;22.80;;;10.75;;
30896;SDS011;64229;52.246;21.054;2022-11-13T14:52:18;22.25;;;11.63;;
30896;SDS011;64229;52.246;21.054;2022-11-13T14:54:45;23.10;;;11.68;;
30896;SDS011;64229;52.246;21.054;2022-11-13T14:57:11;24.30;;;12.13;;
30896;SDS011;64229;52.246;21.054;2022-11-13T14:59:38;27.63;;;13.13;;
30896;SDS011;64229;52.246;21.054;2022-11-13T15:02:08;26.80;;;13.27;;
30896;SDS011;64229;52.246;21.054;2022-11-13T15:04:34;30.33;;;14.20;;
30896;SDS011;64229;52.246;21.054;2022-11-13T15:07:00;32.75;;;14.18;;
30896;SDS011;64229;52.246;21.054;2022-11-13T15:09:28;27.50;;;12.77;;
30896;SDS011;64229;52.246;21.054;2022-11-13T15:11:54;28.92;;;14.00;;
30896;SDS011;64229;52.246;21.054;2022-11-13T15:14:20;34.70;;;15.43;;
30896;SDS011;64229;52.246;21.054;2022-11-13T15:16:47;38.95;;;16.75;;
30896;SDS011;64229;52.246;21.054;2022-11-13T15:21:48;38.05;;;16.13;;
30896;SDS011;64229;52.246;21.054;2022-11-13T15:24:13;34.33;;;16.30;;
30896;SDS011;64229;52.246;21.054;2022-11-13T15:26:39;37.85;;;16.52;;
30896;SDS011;64229;52.246;21.054;2022-11-13T15:29:05;37.83;;;16.45;;
30896;SDS011;64229;52.246;21.054;2022-11-13T15:31:31;36.03;;;16.40;;
30896;SDS011;64229;52.246;21.054;2022-11-13T15:33:59;39.47;;;18.65;;
30896;SDS011;64229;52.246;21.054;2022-11-13T15:36:24;35.22;;;16.85;;
30896;SDS011;64229;52.246;21.054;2022-11-13T15:38:50;41.58;;;18.58;;
30896;SDS011;64229;52.246;21.054;2022-11-13T15:41:19;35.83;;;17.83;;
30896;SDS011;64229;52.246;21.054;2022-11-13T15:43:53;42.35;;;18.60;;
30896;SDS011;64229;52.246;21.054;2022-11-13T15:46:20;38.72;;;16.65;;
30896;SDS011;64229;52.246;21.054;2022-11-13T15:48:47;36.20;;;16.30;;
30896;SDS011;64229;52.246;21.054;2022-11-13T15:53:51;33.70;;;15.85;;
30896;SDS011;64229;52.246;21.054;2022-11-13T15:56:33;35.13;;;15.98;;
30896;SDS011;64229;52.246;21.054;2022-11-13T15:58:58;31.33;;;14.88;;
30896;SDS011;64229;52.246;21.054;2022-11-13T16:01:24;35.38;;;15.55;;
30896;SDS011;64229;52.246;21.054;2022-11-13T16:03:49;37.10;;;16.23;;
30896;SDS011;64229;52.246;21.054;2022-11-13T16:06:16;36.28;;;16.45;;
30896;SDS011;64229;52.246;21.054;2022-11-13T16:08:45;41.00;;;17.77;;
30896;SDS011;64229;52.246;21.054;2022-11-13T16:11:14;35.50;;;17.02;;
30896;SDS011;64229;52.246;21.054;2022-11-13T16:13:41;40.28;;;18.00;;
30896;SDS011;64229;52.246;21.054;2022-11-13T16:16:08;39.80;;;16.63;;
30896;SDS011;64229;52.246;21.054;2022-11-13T16:18:40;41.95;;;17.30;;
30896;SDS011;64229;52.246;21.054;2022-11-13T16:21:07;33.97;;;15.90;;
30896;SDS011;64229;52.246;21.054;2022-11-13T16:23:35;35.53;;;15.38;;
30896;SDS011;64229;52.246;21.054;2022-11-13T16:26:01;37.50;;;16.45;;
30896;SDS011;64229;52.246;21.054;2022-11-13T16:28:28;31.92;;;15.25;;
30896;SDS011;64229;52.246;21.054;2022-11-13T16:30:53;36.38;;;15.70;;